Kikai Airport
RJKI : now visible

Airfield :











YOU CAN JOIN US ON...

 
LOGIN :

Register | Disclaimer

   EN    FR    IT 

 









Legend :    VFR   Marginal VFR   IFR   Intensive IFR   Very Intensive IFR
Visi :
Ceiling :
>= 8 km
>= 3000ft
5 to 8 km
1000 to 3000 ft
1500m to 5 km
500 to 1000 ft
800 to 1500m
200 to 500 ft
< 800m
< 200 ft
Symbols :   Thunderstorms  Fog  Heavy snow  Heavy precipitations  Wind > 20 kt






- Airport Elevation : 21 ft
- IATA code : KKX


RJKI - Kikai

CURRENT METAR :
  • 260444Z AUTO 16008KT 090V200 7000 BKN003 BKN008 OVC013 //////CB 24/21 Q1011 RMK A2987 CB OHD MOV E

EXPIRED METARs :
  • 260430Z AUTO 16006KT 110V190 1200 +RA BR BKN003 BKN007 BKN010 //////TCU 24/20 Q1011 RMK A2987 RI030 TCU OHD MOV NE AND 35KM W MOV UNKNOWN
  • 260414Z AUTO 16009KT 120V200 3900 RA BR SCT003 BKN005 BKN013 //////TCU 24/20 Q1011 RMK A2988 RI005 TCU OHD MOV NE
  • 260400Z AUTO 16009KT 100V190 7000 -RA FEW005 SCT007 BKN013 //////TCU 24/21 Q1011
  • 260328Z AUTO 16007KT 100V200 7000 -RA FEW009 BKN020 OVC023 //////TCU 24/21 Q1012 RMK A2989 TCU 30KM SW MOV NE
  • 260300Z AUTO 17008KT 130V200 5000 -RA BR FEW005 SCT008 BKN010 24/21 Q1012
  • 260242Z AUTO 15007KT 110V200 4500 -RA BR FEW003 SCT010 BKN016 24/22 Q1012 RMK A2990
  • 260228Z AUTO 16005KT 110V200 3500 -RA BR BKN003 BKN007 BKN009 24/22 Q1012 RMK A2991
  • 260200Z AUTO 14006KT 090V200 5000 BR FEW006 BKN015 BKN019 24/21 Q1012
  • 260143Z AUTO 15005KT 080V230 2000 RA BR FEW009 SCT020 BKN025 24/21 Q1012 RMK A2991 RI014
  • 260132Z AUTO 15006KT 120V180 3700 -RA BR FEW010 BKN020 BKN025 24/21 Q1012 RMK A2991
  • 260105Z AUTO 14007KT 110V190 9999 -RA FEW004 BKN015 BKN018 24/21 Q1013 RMK A2991
  • 260031Z AUTO 14005KT 100V170 4700 -RA BR FEW005 SCT007 BKN013 //////TCU 24/21 Q1013 RMK A2992 TCU 35KM NW MOV NE
  • 260014Z AUTO 14005KT 100V180 8000 -RA FEW005 BKN007 BKN021 //////TCU 24/22 Q1013 RMK A2992 TCU 40KM W MOV E
  • 260000Z AUTO 13004KT 070V180 9999 FEW007 OVC038 24/22 Q1013

TAF N/A
RJJJ FIR / Asia



MET'MAP, your aeronautical weather chart ! - Copyright ORBIFLY December 2007 - Disclaimer

ORBIFLY MET'MAP TEAM :

Programming & Development : Alexandra Zaïnal
Original concept : Baudouin d'Aumeries
Technical & hardware support : Manuel Goepfert
Assistance : Marc-Olivier Méhu




SOURCES & CREDITS :

   NOAA       Earth
Advisory